createdAt,value
2019-02-19T00:02:24.676Z,8.40
2019-02-19T00:04:52.985Z,8.40
2019-02-19T00:07:21.285Z,8.40
2019-02-19T00:09:49.578Z,8.40
2019-02-19T00:12:17.811Z,8.50
2019-02-19T00:14:46.139Z,8.40
2019-02-19T00:17:14.399Z,8.30
2019-02-19T00:19:42.729Z,8.30
2019-02-19T00:22:11.044Z,8.20
2019-02-19T00:24:39.399Z,8.10
2019-02-19T00:27:07.643Z,8.10
2019-02-19T00:29:35.932Z,8.10
2019-02-19T00:32:04.164Z,8.10
2019-02-19T00:34:32.550Z,8.00
2019-02-19T00:37:00.903Z,8.00
2019-02-19T00:39:29.128Z,8.00
2019-02-19T00:41:57.431Z,8.00
2019-02-19T00:44:25.701Z,8.10
2019-02-19T00:46:53.946Z,8.10
2019-02-19T00:49:22.162Z,8.00
2019-02-19T00:51:50.441Z,7.90
2019-02-19T00:54:18.890Z,8.00
2019-02-19T00:56:47.133Z,8.10
2019-02-19T00:59:15.442Z,8.10
2019-02-19T01:01:43.695Z,8.10
2019-02-19T01:04:11.964Z,8.40
2019-02-19T01:06:40.237Z,8.30
2019-02-19T01:09:08.655Z,8.30
2019-02-19T01:11:37.006Z,8.40
2019-02-19T01:14:05.287Z,8.40
2019-02-19T01:16:33.554Z,8.40
2019-02-19T01:19:01.802Z,8.40
2019-02-19T01:21:30.027Z,8.40
2019-02-19T01:23:58.289Z,8.50
2019-02-19T01:26:26.547Z,8.50
2019-02-19T01:28:54.825Z,8.50
2019-02-19T01:31:23.037Z,8.40
2019-02-19T01:33:51.278Z,8.40
2019-02-19T01:36:19.536Z,8.60
2019-02-19T01:38:47.842Z,8.50
2019-02-19T01:41:16.108Z,8.50
2019-02-19T01:43:44.363Z,8.50
2019-02-19T01:46:12.625Z,8.50
2019-02-19T01:48:40.986Z,8.40
2019-02-19T01:51:11.585Z,8.40
2019-02-19T01:53:39.870Z,8.50
2019-02-19T01:56:08.118Z,8.30
2019-02-19T01:58:36.397Z,8.40
2019-02-19T02:01:04.649Z,8.30
2019-02-19T02:03:32.878Z,8.30
2019-02-19T02:06:01.135Z,8.10
2019-02-19T02:08:29.464Z,8.00
2019-02-19T02:10:57.763Z,8.20
2019-02-19T02:13:25.993Z,8.20
2019-02-19T02:15:54.266Z,8.20
2019-02-19T02:18:22.594Z,8.20
2019-02-19T02:20:50.863Z,8.10
2019-02-19T02:23:19.120Z,8.00
2019-02-19T02:25:47.345Z,7.90
2019-02-19T02:28:15.605Z,7.80
2019-02-19T02:30:43.911Z,7.70
2019-02-19T02:33:12.170Z,7.70
2019-02-19T02:35:40.411Z,7.60
2019-02-19T02:38:08.649Z,7.60
2019-02-19T02:40:36.902Z,7.50
2019-02-19T02:43:05.152Z,7.50
2019-02-19T02:45:33.411Z,7.60
2019-02-19T02:48:01.634Z,7.60
2019-02-19T02:50:29.870Z,7.60
2019-02-19T02:52:58.144Z,7.50
2019-02-19T02:55:26.374Z,7.40
2019-02-19T02:57:54.640Z,7.40
2019-02-19T03:00:22.885Z,7.30
2019-02-19T03:02:51.163Z,7.30
2019-02-19T03:05:19.488Z,7.20
2019-02-19T03:07:51.787Z,7.30
2019-02-19T03:10:20.099Z,7.20
2019-02-19T03:12:48.367Z,7.30
2019-02-19T03:15:16.898Z,7.20
2019-02-19T03:17:45.136Z,7.20
2019-02-19T03:20:13.406Z,7.30
2019-02-19T03:22:41.650Z,7.20
2019-02-19T03:25:09.906Z,7.20
2019-02-19T03:27:38.208Z,7.10
2019-02-19T03:30:09.296Z,7.20
2019-02-19T03:32:37.581Z,7.30
2019-02-19T03:35:05.988Z,7.30
2019-02-19T03:37:34.238Z,7.20
2019-02-19T03:40:02.481Z,7.00
2019-02-19T03:42:30.730Z,7.00
2019-02-19T03:44:58.983Z,7.10
2019-02-19T03:47:27.225Z,7.10
2019-02-19T03:49:55.533Z,7.10
2019-02-19T03:52:23.924Z,7.00
2019-02-19T03:54:52.206Z,7.00
2019-02-19T03:57:20.476Z,7.00
2019-02-19T03:59:48.759Z,7.00
2019-02-19T04:02:17.310Z,7.10
2019-02-19T04:04:45.623Z,7.10
2019-02-19T04:07:14.127Z,7.00
2019-02-19T04:09:42.368Z,6.90
2019-02-19T04:12:10.663Z,6.90
2019-02-19T04:14:38.970Z,6.90
2019-02-19T04:17:07.227Z,6.90
2019-02-19T04:19:35.474Z,6.90
2019-02-19T04:22:03.716Z,6.90
2019-02-19T04:24:32.130Z,6.90
2019-02-19T04:27:00.639Z,6.90
2019-02-19T04:29:29.021Z,6.80
2019-02-19T04:31:57.475Z,6.80
2019-02-19T04:34:25.734Z,6.90
2019-02-19T04:36:54.026Z,7.10
2019-02-19T04:39:22.298Z,7.20
2019-02-19T04:41:50.571Z,7.30
2019-02-19T04:44:18.856Z,7.40
2019-02-19T04:46:47.117Z,7.50
2019-02-19T04:49:15.382Z,7.50
2019-02-19T04:51:43.624Z,7.60
2019-02-19T04:54:11.893Z,7.70
2019-02-19T04:56:40.139Z,7.70
2019-02-19T04:59:08.402Z,7.70
2019-02-19T05:01:36.701Z,7.80
2019-02-19T05:04:05.076Z,7.80
2019-02-19T05:06:33.346Z,7.80
2019-02-19T05:09:01.615Z,7.80
2019-02-19T05:11:29.889Z,7.80
2019-02-19T05:13:58.166Z,7.80
2019-02-19T05:16:45.903Z,7.80
2019-02-19T05:19:14.175Z,7.80
2019-02-19T05:21:42.435Z,7.70
2019-02-19T05:24:10.676Z,7.80
2019-02-19T05:26:39.317Z,7.80
2019-02-19T05:29:07.605Z,7.80
2019-02-19T05:31:35.885Z,7.90
2019-02-19T05:34:04.148Z,7.90
2019-02-19T05:36:32.424Z,7.80
2019-02-19T05:39:00.695Z,7.80
2019-02-19T05:41:28.952Z,7.80
2019-02-19T05:43:57.221Z,7.90
2019-02-19T05:46:25.444Z,8.00
2019-02-19T05:48:53.709Z,8.00
2019-02-19T05:51:22.032Z,8.00
2019-02-19T05:53:50.362Z,8.00
2019-02-19T05:56:18.666Z,8.00
2019-02-19T05:58:47.011Z,7.90
2019-02-19T06:01:15.240Z,7.90
2019-02-19T06:03:43.514Z,8.00
2019-02-19T06:06:11.784Z,8.00
2019-02-19T06:08:40.060Z,8.10
2019-02-19T06:11:08.468Z,8.10
2019-02-19T06:13:36.781Z,8.00
2019-02-19T06:16:05.212Z,7.90
2019-02-19T06:18:33.526Z,8.00
2019-02-19T06:21:01.825Z,8.00
2019-02-19T06:23:30.095Z,7.90
2019-02-19T06:25:58.369Z,7.80
2019-02-19T06:28:26.644Z,7.80
2019-02-19T06:30:54.906Z,7.80
2019-02-19T06:33:23.320Z,7.70
2019-02-19T06:35:51.575Z,7.60
2019-02-19T06:38:19.832Z,7.60
2019-02-19T06:40:48.050Z,7.50
2019-02-19T06:43:16.302Z,7.60
2019-02-19T06:45:44.577Z,7.60
2019-02-19T06:48:12.860Z,7.60
2019-02-19T06:50:41.137Z,7.70
2019-02-19T06:53:09.449Z,7.60
2019-02-19T06:55:37.712Z,7.60
2019-02-19T06:58:06.531Z,7.60
2019-02-19T07:00:35.012Z,7.60
2019-02-19T07:03:07.701Z,7.70
2019-02-19T07:05:35.951Z,7.60
2019-02-19T07:08:04.219Z,7.60
2019-02-19T07:10:45.171Z,7.50
2019-02-19T07:13:13.441Z,7.50
2019-02-19T07:15:41.762Z,7.50
2019-02-19T07:18:10.002Z,7.50
2019-02-19T07:20:38.226Z,7.50
2019-02-19T07:23:06.506Z,7.50
2019-02-19T07:25:35.835Z,7.50
2019-02-19T07:28:04.058Z,7.50
2019-02-19T07:30:32.305Z,7.60
2019-02-19T07:33:00.555Z,7.70
2019-02-19T07:35:28.821Z,7.70
2019-02-19T07:37:57.067Z,7.70
2019-02-19T07:40:25.343Z,7.60
2019-02-19T07:42:53.644Z,7.50
2019-02-19T07:45:21.909Z,7.60
2019-02-19T07:47:50.231Z,7.70
2019-02-19T07:50:18.478Z,7.80
2019-02-19T07:52:46.786Z,7.80
2019-02-19T07:55:15.103Z,7.80
2019-02-19T07:57:43.378Z,7.60
2019-02-19T08:00:13.139Z,7.60
2019-02-19T08:02:41.450Z,7.60
2019-02-19T08:05:09.812Z,7.60
2019-02-19T08:07:38.048Z,7.60
2019-02-19T08:10:08.872Z,7.60
2019-02-19T08:12:37.225Z,7.60
2019-02-19T08:15:08.226Z,7.60
2019-02-19T08:17:36.451Z,7.60
2019-02-19T08:20:14.915Z,7.60
2019-02-19T08:22:35.874Z,7.70
2019-02-19T08:25:04.790Z,7.60
2019-02-19T08:27:33.029Z,7.70
2019-02-19T08:30:01.313Z,7.70
2019-02-19T08:32:29.569Z,7.60
2019-02-19T08:34:57.857Z,7.60
2019-02-19T08:37:26.074Z,7.50
2019-02-19T08:39:54.339Z,7.50
2019-02-19T08:42:22.704Z,7.50
2019-02-19T08:44:50.995Z,7.50
2019-02-19T08:47:19.262Z,7.50
2019-02-19T08:49:47.511Z,7.50
2019-02-19T08:52:15.802Z,7.50
2019-02-19T08:54:44.062Z,7.30
2019-02-19T08:57:12.301Z,7.30
2019-02-19T08:59:40.602Z,7.30
2019-02-19T09:02:08.815Z,7.20
2019-02-19T09:04:37.068Z,7.20
2019-02-19T09:07:05.415Z,7.20
2019-02-19T09:09:33.724Z,7.10
2019-02-19T09:12:02.013Z,7.10
2019-02-19T09:14:30.282Z,7.10
2019-02-19T09:16:58.599Z,7.10
2019-02-19T09:19:26.862Z,7.10
2019-02-19T09:21:55.200Z,7.10
2019-02-19T09:24:23.475Z,7.10
2019-02-19T09:26:51.779Z,7.00
2019-02-19T09:29:20.008Z,7.00
2019-02-19T09:31:48.236Z,7.00
2019-02-19T09:34:16.677Z,7.00
2019-02-19T09:36:44.915Z,7.10
2019-02-19T09:39:13.288Z,7.10
2019-02-19T09:41:41.537Z,7.10
2019-02-19T09:44:09.916Z,7.10
2019-02-19T09:46:38.197Z,7.10
2019-02-19T09:49:06.555Z,7.10
2019-02-19T09:51:34.920Z,7.10
2019-02-19T09:54:03.146Z,7.20
2019-02-19T09:56:31.503Z,7.20
2019-02-19T09:58:59.838Z,7.30
2019-02-19T10:01:28.430Z,7.10
2019-02-19T10:03:56.802Z,7.10
2019-02-19T10:06:25.137Z,7.10
2019-02-19T10:08:53.438Z,7.20
2019-02-19T10:11:21.672Z,7.10
2019-02-19T10:13:50.057Z,7.10
2019-02-19T10:16:18.273Z,7.10
2019-02-19T10:18:46.625Z,7.10
2019-02-19T10:21:14.857Z,7.00
2019-02-19T10:23:43.157Z,7.00
2019-02-19T10:26:11.437Z,7.00
2019-02-19T10:28:39.707Z,6.90
2019-02-19T10:31:07.960Z,6.90
2019-02-19T10:33:36.269Z,6.80
2019-02-19T10:36:04.590Z,6.80
2019-02-19T10:38:32.866Z,6.90
2019-02-19T10:41:01.200Z,7.00
2019-02-19T10:43:29.563Z,7.10
2019-02-19T10:45:57.874Z,7.20
2019-02-19T10:48:26.141Z,7.30
2019-02-19T10:50:54.395Z,7.40
2019-02-19T10:53:22.638Z,7.50
2019-02-19T10:55:50.900Z,7.70
2019-02-19T10:58:38.578Z,7.70
2019-02-19T11:01:06.820Z,7.70
2019-02-19T11:03:35.158Z,7.80
2019-02-19T11:06:03.419Z,7.60
2019-02-19T11:08:31.692Z,7.80
2019-02-19T11:11:00.047Z,7.90
2019-02-19T11:13:28.327Z,8.00
2019-02-19T11:15:56.583Z,8.00
2019-02-19T11:18:28.374Z,7.90
2019-02-19T11:20:54.835Z,8.20
2019-02-19T11:23:23.129Z,8.40
2019-02-19T11:25:51.362Z,8.50
2019-02-19T11:28:19.634Z,8.80
2019-02-19T11:30:47.887Z,9.30
2019-02-19T11:33:16.164Z,9.60
2019-02-19T11:35:44.468Z,9.50
2019-02-19T11:38:12.744Z,9.30
2019-02-19T11:40:41.362Z,9.40
2019-02-19T11:43:09.627Z,9.50
2019-02-19T11:45:37.882Z,9.30
2019-02-19T11:48:06.333Z,9.30
2019-02-19T11:50:34.634Z,9.40
2019-02-19T11:53:22.366Z,9.70
2019-02-19T11:55:50.816Z,9.80
2019-02-19T11:58:19.078Z,9.70
2019-02-19T12:00:47.350Z,9.60
2019-02-19T12:03:15.592Z,9.60
2019-02-19T12:05:43.869Z,9.60
2019-02-19T12:08:12.115Z,9.30
2019-02-19T12:10:40.366Z,9.70
2019-02-19T12:13:08.622Z,9.50
2019-02-19T12:15:36.973Z,9.40
2019-02-19T12:18:05.205Z,9.10
2019-02-19T12:20:33.529Z,8.80
2019-02-19T12:23:01.812Z,8.90
2019-02-19T12:25:30.038Z,9.10
2019-02-19T12:27:58.333Z,9.10
2019-02-19T12:30:26.570Z,9.30
2019-02-19T12:32:54.831Z,9.40
2019-02-19T12:35:23.154Z,9.70
2019-02-19T12:37:51.399Z,9.60
2019-02-19T12:40:19.680Z,9.70
2019-02-19T12:42:47.925Z,9.70
2019-02-19T12:45:16.251Z,9.60
2019-02-19T12:47:44.549Z,9.60
2019-02-19T12:50:14.985Z,9.60
2019-02-19T12:52:43.337Z,9.70
2019-02-19T12:55:11.678Z,9.40
2019-02-19T12:57:39.968Z,9.60
2019-02-19T13:00:16.530Z,9.70
2019-02-19T13:02:44.914Z,9.80
2019-02-19T13:05:14.612Z,9.90
2019-02-19T13:07:42.857Z,9.90
2019-02-19T13:10:12.868Z,10.10
2019-02-19T13:12:41.181Z,10.10
2019-02-19T13:15:16.731Z,10.10
2019-02-19T13:17:45.128Z,10.10
2019-02-19T13:20:14.485Z,10.20
2019-02-19T13:22:42.784Z,10.20
2019-02-19T13:25:11.598Z,10.10
2019-02-19T13:27:39.875Z,10.30
2019-02-19T13:30:31.918Z,10.30
2019-02-19T13:33:00.208Z,10.20
2019-02-19T13:35:28.429Z,10.30
2019-02-19T13:37:56.705Z,10.30
2019-02-19T13:40:24.986Z,10.40
2019-02-19T13:42:53.234Z,10.30
2019-02-19T13:45:21.520Z,10.20
2019-02-19T13:47:49.786Z,10.00
2019-02-19T13:50:21.331Z,9.80
2019-02-19T13:53:06.334Z,9.90
2019-02-19T13:55:36.258Z,10.00
2019-02-19T13:58:04.599Z,9.90
2019-02-19T14:00:34.513Z,9.90
2019-02-19T14:03:03.322Z,9.90
2019-02-19T14:05:31.587Z,9.70
2019-02-19T14:07:59.814Z,9.80
2019-02-19T14:10:28.193Z,9.80
2019-02-19T14:12:56.424Z,9.90
2019-02-19T14:16:01.927Z,10.00
2019-02-19T14:18:50.423Z,10.00
2019-02-19T14:21:29.234Z,10.10
2019-02-19T14:24:05.389Z,10.10
2019-02-19T14:26:35.343Z,10.30
2019-02-19T14:29:11.006Z,10.50
2019-02-19T14:31:49.702Z,10.70
2019-02-19T14:34:22.606Z,10.60
2019-02-19T14:37:01.474Z,10.80
2019-02-19T14:39:31.399Z,11.00
2019-02-19T14:42:03.932Z,11.20
2019-02-19T14:44:33.840Z,11.30
2019-02-19T14:47:30.654Z,11.20
2019-02-19T14:50:16.751Z,11.30
2019-02-19T14:52:53.129Z,11.30
2019-02-19T14:55:32.130Z,11.10
2019-02-19T14:58:13.955Z,11.10
2019-02-19T15:01:00.333Z,11.20
2019-02-19T15:03:46.816Z,11.00
2019-02-19T15:06:25.809Z,11.00
2019-02-19T15:08:55.798Z,10.80
2019-02-19T15:11:34.602Z,10.70
2019-02-19T15:14:20.511Z,10.70
2019-02-19T15:17:06.755Z,10.50
2019-02-19T15:25:18.812Z,10.40
2019-02-19T15:27:55.004Z,10.40
2019-02-19T15:33:25.617Z,10.50
2019-02-19T15:35:55.562Z,10.40
2019-02-19T15:38:31.621Z,10.60
2019-02-19T15:41:16.714Z,10.60
2019-02-19T15:43:49.542Z,10.60
2019-02-19T15:46:19.492Z,10.50
2019-02-19T15:48:55.457Z,10.40
2019-02-19T15:51:34.598Z,10.40
2019-02-19T15:54:16.831Z,10.40
2019-02-19T15:56:55.458Z,10.40
2019-02-19T15:59:25.363Z,10.30
2019-02-19T16:02:10.314Z,10.20
2019-02-19T16:04:40.236Z,10.10
2019-02-19T16:07:15.958Z,10.10
2019-02-19T16:09:45.869Z,10.00
2019-02-19T16:12:15.769Z,10.00
2019-02-19T16:14:54.203Z,10.10
2019-02-19T16:17:24.120Z,10.10
2019-02-19T16:19:57.037Z,10.00
2019-02-19T16:22:28.594Z,10.00
2019-02-19T16:25:10.741Z,9.80
2019-02-19T16:27:43.771Z,9.70
2019-02-19T16:30:13.809Z,9.60
2019-02-19T16:32:43.729Z,9.50
2019-02-19T16:37:56.649Z,9.20
2019-02-19T16:40:26.606Z,9.10
2019-02-19T16:42:59.215Z,9.00
2019-02-19T16:45:29.117Z,8.80
2019-02-19T16:48:10.991Z,8.60
2019-02-19T16:50:48.018Z,8.40
2019-02-19T16:53:17.904Z,8.30
2019-02-19T16:56:04.477Z,8.30
2019-02-19T17:01:26.324Z,8.20
2019-02-19T17:04:03.456Z,8.10
2019-02-19T17:06:52.286Z,8.00
2019-02-19T17:12:22.588Z,7.90
2019-02-19T17:14:55.499Z,7.80
2019-02-19T17:17:44.272Z,7.90
2019-02-19T17:20:28.917Z,7.80
2019-02-19T17:22:51.653Z,7.70
2019-02-19T17:25:24.291Z,7.70
2019-02-19T17:27:54.195Z,7.70
2019-02-19T17:30:24.139Z,7.60
2019-02-19T17:32:57.156Z,7.50
2019-02-19T17:35:28.837Z,7.50
2019-02-19T17:38:14.238Z,7.50
2019-02-19T17:40:36.516Z,7.50
2019-02-19T17:43:12.330Z,7.60
2019-02-19T17:45:55.493Z,7.60
2019-02-19T17:48:34.712Z,7.50
2019-02-19T17:51:04.665Z,7.60
2019-02-19T17:53:34.622Z,7.60
2019-02-19T17:56:16.321Z,7.60
2019-02-19T17:58:55.183Z,7.60
2019-02-19T18:01:27.965Z,7.50
2019-02-19T18:03:59.386Z,7.40
2019-02-19T18:06:29.411Z,7.40
2019-02-19T18:08:59.370Z,7.40
2019-02-19T18:11:32.137Z,7.50
2019-02-19T18:14:02.063Z,7.40
2019-02-19T18:16:38.012Z,7.20
2019-02-19T18:19:06.333Z,7.10
2019-02-19T18:21:34.608Z,6.90
2019-02-19T18:24:02.895Z,6.60
2019-02-19T18:26:31.305Z,6.60
2019-02-19T18:28:59.739Z,6.60
2019-02-19T18:31:27.991Z,6.60
2019-02-19T18:33:56.320Z,6.80
2019-02-19T18:36:24.589Z,6.70
2019-02-19T18:38:52.852Z,6.60
2019-02-19T18:41:22.762Z,6.60
2019-02-19T18:43:51.007Z,6.50
2019-02-19T18:46:20.354Z,6.50
2019-02-19T18:48:48.603Z,6.20
2019-02-19T18:51:17.117Z,6.10
2019-02-19T18:53:45.436Z,5.90
2019-02-19T18:56:13.736Z,5.80
2019-02-19T18:58:42.007Z,5.70
2019-02-19T19:01:10.280Z,5.60
2019-02-19T19:03:38.574Z,5.50
2019-02-19T19:06:06.833Z,5.50
2019-02-19T19:08:35.140Z,5.50
2019-02-19T19:11:03.420Z,5.50
2019-02-19T19:13:31.763Z,5.40
2019-02-19T19:16:00.086Z,5.40
2019-02-19T19:18:28.419Z,5.50
2019-02-19T19:20:56.692Z,5.40
2019-02-19T19:23:25.093Z,5.30
2019-02-19T19:25:53.371Z,5.40
2019-02-19T19:28:21.655Z,5.40
2019-02-19T19:30:49.911Z,5.40
2019-02-19T19:33:18.180Z,5.40
2019-02-19T19:35:46.474Z,5.30
2019-02-19T19:38:14.812Z,5.30
2019-02-19T19:40:43.128Z,5.20
2019-02-19T19:43:11.388Z,5.20
2019-02-19T19:45:39.670Z,5.10
2019-02-19T19:48:07.911Z,4.90
2019-02-19T19:50:36.232Z,5.00
2019-02-19T19:53:04.646Z,4.90
2019-02-19T19:55:33.181Z,4.80
2019-02-19T19:58:06.162Z,4.70
2019-02-19T20:00:33.782Z,4.80
2019-02-19T20:03:02.089Z,4.80
2019-02-19T20:05:30.325Z,4.80
2019-02-19T20:07:58.677Z,4.80
2019-02-19T20:10:26.933Z,4.80
2019-02-19T20:12:55.214Z,4.90
2019-02-19T20:15:23.563Z,4.90
2019-02-19T20:17:51.889Z,5.00
2019-02-19T20:20:20.218Z,5.10
2019-02-19T20:22:48.954Z,5.10
2019-02-19T20:25:17.357Z,5.10
2019-02-19T20:27:48.631Z,5.10
2019-02-19T20:30:16.992Z,5.10
2019-02-19T20:32:45.356Z,5.10
2019-02-19T20:35:13.823Z,5.10
2019-02-19T20:37:42.132Z,5.10
2019-02-19T20:40:11.706Z,5.10
2019-02-19T20:42:39.980Z,5.00
2019-02-19T20:45:12.467Z,5.00
2019-02-19T20:47:40.799Z,5.00
2019-02-19T20:50:11.477Z,5.00
2019-02-19T20:52:39.734Z,4.90
2019-02-19T20:55:09.760Z,5.10
2019-02-19T20:57:38.036Z,4.90
2019-02-19T21:00:17.429Z,5.20
2019-02-19T21:02:45.719Z,4.90
2019-02-19T21:05:14.032Z,4.70
2019-02-19T21:07:42.309Z,4.90
2019-02-19T21:10:15.803Z,5.00
2019-02-19T21:12:44.075Z,4.80
2019-02-19T21:15:13.867Z,4.80
2019-02-19T21:17:42.222Z,4.70
2019-02-19T21:20:11.531Z,4.60
2019-02-19T21:22:39.937Z,4.70
2019-02-19T21:25:10.638Z,4.90
2019-02-19T21:27:38.937Z,4.80
2019-02-19T21:30:18.174Z,4.80
2019-02-19T21:32:47.029Z,4.80
2019-02-19T21:35:15.370Z,4.60
2019-02-19T21:37:43.791Z,4.50
2019-02-19T21:40:13.553Z,4.50
2019-02-19T21:42:41.809Z,4.70
2019-02-19T21:45:14.103Z,4.90
2019-02-19T21:47:42.371Z,5.10
2019-02-19T21:50:15.840Z,4.90
2019-02-19T21:52:44.369Z,5.10
2019-02-19T21:55:12.964Z,4.90
2019-02-19T21:57:41.285Z,4.80
2019-02-19T22:00:15.419Z,4.70
2019-02-19T22:02:43.724Z,4.80
2019-02-19T22:05:12.082Z,4.80
2019-02-19T22:07:40.356Z,5.00
2019-02-19T22:10:10.451Z,5.10
2019-02-19T22:12:38.784Z,5.00
2019-02-19T22:15:09.640Z,4.80
2019-02-19T22:17:37.926Z,4.60
2019-02-19T22:20:13.754Z,4.40
2019-02-19T22:22:42.063Z,4.20
2019-02-19T22:25:11.979Z,4.30
2019-02-19T22:27:40.601Z,4.50
2019-02-19T22:30:09.368Z,4.70
2019-02-19T22:32:37.676Z,4.60
2019-02-19T22:35:07.552Z,4.50
2019-02-19T22:37:35.833Z,4.50
2019-02-19T22:40:08.186Z,4.40
2019-02-19T22:42:36.506Z,4.20
2019-02-19T22:45:07.703Z,4.10
2019-02-19T22:47:35.998Z,4.00
2019-02-19T22:50:07.054Z,3.90
2019-02-19T22:52:35.505Z,3.80
2019-02-19T22:55:08.942Z,3.70
2019-02-19T22:57:43.114Z,3.70
2019-02-19T23:00:24.463Z,3.60
2019-02-19T23:02:52.793Z,3.70
2019-02-19T23:05:21.099Z,3.60
2019-02-19T23:07:49.428Z,3.50
2019-02-19T23:10:17.681Z,3.40
2019-02-19T23:12:45.992Z,3.30
2019-02-19T23:15:14.299Z,3.40
2019-02-19T23:17:42.548Z,3.40
2019-02-19T23:20:10.886Z,3.30
2019-02-19T23:22:39.178Z,3.20
2019-02-19T23:25:07.504Z,3.10
2019-02-19T23:27:35.853Z,2.90
2019-02-19T23:30:05.147Z,2.90
2019-02-19T23:32:33.427Z,2.80
2019-02-19T23:35:11.978Z,2.80
2019-02-19T23:37:40.217Z,2.80
2019-02-19T23:40:08.830Z,2.90
2019-02-19T23:42:37.084Z,3.20
2019-02-19T23:45:07.469Z,3.20
2019-02-19T23:47:35.718Z,3.20
2019-02-19T23:50:08.043Z,3.00
2019-02-19T23:52:36.384Z,3.00
2019-02-19T23:55:06.678Z,3.00
2019-02-19T23:57:34.991Z,3.00
